Time;durP1;ratioP1;P1;durP2;ratioP2;P2;SDS_P1;SDS_P2;PMS_P1;PMS_P2;Temp;Humidity;BMP_temperature;BMP_pressure;BME280_temperature;BME280_humidity;BME280_pressure;Samples;Min_cycle;Max_cycle;Signal;HPM_P1;HPM_P2
2022/02/20 00:00:49;;;;;;;;;;;;;;;;;;5089934;28;19920;-72
2022/02/20 00:03:14;;;;;;;;;;;;;;;;;;5087767;28;19973;-70
2022/02/20 00:05:40;;;;;;;;;;;;;;;;;;5076439;28;20373;-71
2022/02/20 00:08:05;;;;;;;;;;;;;;;;;;5089591;28;20410;-74
2022/02/20 00:10:31;;;;;;;;;;;;;;;;;;5081008;28;20228;-73
2022/02/20 00:12:57;;;;;;;;;;;;;;;;;;5089454;28;20393;-69
2022/02/20 00:15:23;;;;;;;;;;;;;;;;;;5080896;28;19920;-71
2022/02/20 00:17:50;;;;;;;;;;;;;;;;;;5081285;28;20412;-72
2022/02/20 00:20:16;;;;;;;;;;;;;;;;;;5089094;28;19946;-70
2022/02/20 00:22:41;;;;;;;;;;;;;;;;;;5081077;28;20388;-72
2022/02/20 00:25:09;;;;;;;;;;;;;;;;;;5074949;28;20065;-75
2022/02/20 00:27:34;;;;;;;;;;;;;;;;;;5083177;28;19920;-76
2022/02/20 00:29:59;;;;;;;;;;;;;;;;;;5088332;28;20276;-75
2022/02/20 00:32:25;;;;;;;;;;;;;;;;;;5089466;28;19916;-77
2022/02/20 00:34:50;;;;;;;;;;;;;;;;;;5089716;28;19916;-77
2022/02/20 00:37:16;;;;;;;;;;;;;;;;;;5088180;28;20346;-74
2022/02/20 00:39:41;;;;;;;;;;;;;;;;;;5075295;28;19928;-77
2022/02/20 00:42:06;;;;;;;;;;;;;;;;;;5074982;28;20005;-78
2022/02/20 00:44:32;;;;;;;;;;;;;;;;;;5081135;28;20372;-78
2022/02/20 00:46:57;;;;;;;;;;;;;;;;;;5089800;28;19916;-76
2022/02/20 00:49:23;;;;;;;;;;;;;;;;;;5081851;28;19959;-76
2022/02/20 00:51:48;;;;;;;;;;;;;;;;;;5075604;28;20387;-77
2022/02/20 00:54:13;;;;;;;;;;;;;;;;;;5088930;28;19951;-76
2022/02/20 00:56:39;;;;;;;;;;;;;;;;;;5076024;28;20370;-77
2022/02/20 00:59:04;;;;;;;;;;;;;;;;;;5079924;28;19924;-72
2022/02/20 01:01:30;;;;;;;;;;;;;;;;;;5080818;28;19924;-72
2022/02/20 01:03:55;;;;;;;;;;;;;;;;;;5087778;28;19924;-71
2022/02/20 01:06:21;;;;;;;;;;;;;;;;;;5088376;28;19959;-71
2022/02/20 01:08:47;;;;;;;;;;;;;;;;;;5076535;28;20521;-69
2022/02/20 01:11:13;;;;;;;;;;;;;;;;;;5087062;28;19916;-71
2022/02/20 01:13:39;;;;;;;;;;;;;;;;;;5088955;28;19927;-71
2022/02/20 01:16:05;;;;;;;;;;;;;;;;;;5092053;28;19920;-71
2022/02/20 01:18:31;;;;;;;;;;;;;;;;;;5092683;28;20462;-71
2022/02/20 01:20:56;;;;;;;;;;;;;;;;;;5080381;28;19917;-70
2022/02/20 01:23:21;;;;;;;;;;;;;;;;;;5088244;28;19943;-71
2022/02/20 01:25:47;;;;;;;;;;;;;;;;;;5080765;28;20028;-72
2022/02/20 01:28:12;;;;;;;;;;;;;;;;;;5089499;28;19916;-72
2022/02/20 01:30:38;;;;;;;;;;;;;;;;;;5092574;28;19920;-71
2022/02/20 01:33:03;;;;;;;;;;;;;;;;;;5092531;28;19955;-72
2022/02/20 01:35:29;;;;;;;;;;;;;;;;;;5091947;28;20292;-71
2022/02/20 01:37:54;;;;;;;;;;;;;;;;;;5092714;28;19959;-71
2022/02/20 01:40:19;;;;;;;;;;;;;;;;;;5083754;28;19924;-70
2022/02/20 01:42:45;;;;;;;;;;;;;;;;;;5083899;28;19989;-73
2022/02/20 01:45:14;;;;;;;;;;;;;;;;;;5092212;28;20273;-70
2022/02/20 01:47:39;;;;;;;;;;;;;;;;;;5092338;28;19920;-70
2022/02/20 01:50:05;;;;;;;;;;;;;;;;;;5083817;28;20023;-72
2022/02/20 01:52:31;;;;;;;;;;;;;;;;;;5088851;28;19927;-70
2022/02/20 01:54:56;;;;;;;;;;;;;;;;;;5083860;28;19916;-70
2022/02/20 01:57:22;;;;;;;;;;;;;;;;;;5083723;28;19966;-70
2022/02/20 01:59:48;;;;;;;;;;;;;;;;;;5083863;28;20288;-70
2022/02/20 02:02:13;;;;;;;;;;;;;;;;;;5090886;28;19920;-69
2022/02/20 02:04:39;;;;;;;;;;;;;;;;;;5090001;28;19919;-71
2022/02/20 02:07:04;;;;;;;;;;;;;;;;;;5090591;28;19912;-71
2022/02/20 02:09:29;;;;;;;;;;;;;;;;;;5090331;28;19919;-70
2022/02/20 02:11:55;;;;;;;;;;;;;;;;;;5090762;28;19923;-70
2022/02/20 02:14:20;;;;;;;;;;;;;;;;;;5092069;28;19939;-71
2022/02/20 02:16:49;;;;;;;;;;;;;;;;;;5091997;28;19923;-72
2022/02/20 02:19:14;;;;;;;;;;;;;;;;;;5090878;28;19993;-71
2022/02/20 02:21:39;;;;;;;;;;;;;;;;;;5090323;28;20371;-71
2022/02/20 02:24:05;;;;;;;;;;;;;;;;;;5090338;28;19920;-71
2022/02/20 02:26:31;;;;;;;;;;;;;;;;;;5091584;28;19949;-71
2022/02/20 02:28:57;;;;;;;;;;;;;;;;;;5090094;28;20292;-73
2022/02/20 02:31:22;;;;;;;;;;;;;;;;;;5089959;28;19912;-71
2022/02/20 02:33:50;;;;;;;;;;;;;;;;;;5091617;28;19916;-71
2022/02/20 02:36:15;;;;;;;;;;;;;;;;;;5089879;28;19923;-71
2022/02/20 02:38:41;;;;;;;;;;;;;;;;;;5089777;28;19924;-69
2022/02/20 02:41:07;;;;;;;;;;;;;;;;;;5124164;27;19930;-70
2022/02/20 02:43:34;;;;;;;;;;;;;;;;;;5091209;28;19916;-69
2022/02/20 02:46:00;;;;;;;;;;;;;;;;;;5090075;28;19923;-71
2022/02/20 02:48:26;;;;;;;;;;;;;;;;;;5089861;28;20334;-71
2022/02/20 02:50:52;;;;;;;;;;;;;;;;;;5091108;28;19916;-71
2022/02/20 02:53:18;;;;;;;;;;;;;;;;;;5090771;28;19994;-71
2022/02/20 02:55:48;;;;;;;;;;;;;;;;;;5089717;28;19912;-71
2022/02/20 02:58:17;;;;;;;;;;;;;;;;;;5089918;28;20570;-70
2022/02/20 03:00:42;;;;;;;;;;;;;;;;;;5089777;28;19923;-70
2022/02/20 03:03:12;;;;;;;;;;;;;;;;;;5089120;28;19920;-72
2022/02/20 03:05:38;;;;;;;;;;;;;;;;;;5082454;28;19916;-71
2022/02/20 03:08:03;;;;;;;;;;;;;;;;;;5097063;28;19916;-72
2022/02/20 03:10:29;;;;;;;;;;;;;;;;;;5075602;28;19917;-71
2022/02/20 03:12:55;;;;;;;;;;;;;;;;;;5099331;28;20003;-72
2022/02/20 03:15:20;;;;;;;;;;;;;;;;;;5090224;28;20298;-70
2022/02/20 03:17:46;;;;;;;;;;;;;;;;;;5090555;28;19923;-71
2022/02/20 03:20:11;;;;;;;;;;;;;;;;;;5082300;28;20345;-72
2022/02/20 03:22:37;;;;;;;;;;;;;;;;;;5090394;28;19926;-69
2022/02/20 03:25:03;;;;;;;;;;;;;;;;;;5090380;28;19919;-72
2022/02/20 03:27:28;;;;;;;;;;;;;;;;;;5090354;28;19926;-72
2022/02/20 03:29:53;;;;;;;;;;;;;;;;;;5082056;28;19920;-72
2022/02/20 03:32:19;;;;;;;;;;;;;;;;;;5075267;28;20392;-71
2022/02/20 03:34:44;;;;;;;;;;;;;;;;;;5082156;28;19920;-70
2022/02/20 03:37:09;;;;;;;;;;;;;;;;;;5081050;28;19923;-70
2022/02/20 03:39:35;;;;;;;;;;;;;;;;;;5081336;28;19935;-69
2022/02/20 03:42:02;;;;;;;;;;;;;;;;;;5090106;28;20390;-71
2022/02/20 03:44:28;;;;;;;;;;;;;;;;;;5081737;28;19916;-71
2022/02/20 03:46:53;;;;;;;;;;;;;;;;;;5089804;28;19938;-70
2022/02/20 03:49:19;;;;;;;;;;;;;;;;;;5089634;28;20391;-71
2022/02/20 03:51:44;;;;;;;;;;;;;;;;;;5089691;28;19923;-70
2022/02/20 03:54:11;;;;;;;;;;;;;;;;;;5089923;28;19916;-71
2022/02/20 03:56:36;;;;;;;;;;;;;;;;;;5081320;28;19927;-71
2022/02/20 03:59:02;;;;;;;;;;;;;;;;;;5081339;28;19916;-71
2022/02/20 04:01:27;;;;;;;;;;;;;;;;;;5089649;28;19920;-71
2022/02/20 04:03:52;;;;;;;;;;;;;;;;;;5089743;28;19931;-71
2022/02/20 04:06:18;;;;;;;;;;;;;;;;;;5088129;28;19943;-71
2022/02/20 04:08:43;;;;;;;;;;;;;;;;;;5087687;28;20010;-71
2022/02/20 04:11:09;;;;;;;;;;;;;;;;;;5089641;28;19920;-72
2022/02/20 04:13:34;;;;;;;;;;;;;;;;;;5089572;28;19931;-71
2022/02/20 04:15:59;;;;;;;;;;;;;;;;;;5081341;28;20264;-71
2022/02/20 04:18:25;;;;;;;;;;;;;;;;;;5087910;28;20524;-70
2022/02/20 04:20:50;;;;;;;;;;;;;;;;;;5089430;28;20403;-71
2022/02/20 04:23:15;;;;;;;;;;;;;;;;;;5086701;28;19924;-70
2022/02/20 04:25:41;;;;;;;;;;;;;;;;;;5089230;28;19995;-70
2022/02/20 04:28:06;;;;;;;;;;;;;;;;;;5089247;28;19916;-72
2022/02/20 04:30:32;;;;;;;;;;;;;;;;;;5087628;28;20291;-70
2022/02/20 04:32:57;;;;;;;;;;;;;;;;;;5076775;28;19970;-70
2022/02/20 04:35:22;;;;;;;;;;;;;;;;;;5074497;28;20043;-69
2022/02/20 04:37:48;;;;;;;;;;;;;;;;;;5084793;28;20007;-72
2022/02/20 04:40:13;;;;;;;;;;;;;;;;;;5076911;28;20376;-71
2022/02/20 04:42:39;;;;;;;;;;;;;;;;;;5086177;28;20396;-71
2022/02/20 04:45:04;;;;;;;;;;;;;;;;;;5088969;28;20018;-72
2022/02/20 04:47:30;;;;;;;;;;;;;;;;;;5080881;28;19920;-70
2022/02/20 04:49:55;;;;;;;;;;;;;;;;;;5082105;28;19928;-71
2022/02/20 04:52:21;;;;;;;;;;;;;;;;;;5077246;28;19972;-72
2022/02/20 04:54:46;;;;;;;;;;;;;;;;;;5085096;28;19920;-72
2022/02/20 04:57:11;;;;;;;;;;;;;;;;;;5093384;28;19962;-71
2022/02/20 04:59:37;;;;;;;;;;;;;;;;;;5084664;28;19920;-71
2022/02/20 05:02:02;;;;;;;;;;;;;;;;;;5091865;28;19942;-70
2022/02/20 05:04:28;;;;;;;;;;;;;;;;;;5093123;28;19916;-71
2022/02/20 05:06:54;;;;;;;;;;;;;;;;;;5092911;28;20011;-71
2022/02/20 05:09:19;;;;;;;;;;;;;;;;;;5084591;28;19936;-70
2022/02/20 05:11:44;;;;;;;;;;;;;;;;;;5093019;28;19924;-69
2022/02/20 05:14:10;;;;;;;;;;;;;;;;;;5093364;28;19916;-69
2022/02/20 05:16:35;;;;;;;;;;;;;;;;;;5092616;28;20413;-72
2022/02/20 05:19:01;;;;;;;;;;;;;;;;;;5092624;28;19916;-71
2022/02/20 05:21:26;;;;;;;;;;;;;;;;;;5084176;28;19924;-73
2022/02/20 05:23:51;;;;;;;;;;;;;;;;;;5084217;28;20311;-71
2022/02/20 05:26:17;;;;;;;;;;;;;;;;;;5093159;28;19916;-71
2022/02/20 05:28:42;;;;;;;;;;;;;;;;;;5093125;28;20007;-71
2022/02/20 05:31:08;;;;;;;;;;;;;;;;;;5092626;28;20761;-70
2022/02/20 05:33:34;;;;;;;;;;;;;;;;;;5078318;28;19947;-71
2022/02/20 05:36:00;;;;;;;;;;;;;;;;;;5092117;28;19916;-71
2022/02/20 05:38:25;;;;;;;;;;;;;;;;;;5090875;28;20413;-70
2022/02/20 05:40:50;;;;;;;;;;;;;;;;;;5093003;28;19916;-70
2022/02/20 05:43:16;;;;;;;;;;;;;;;;;;5092480;28;20022;-72
2022/02/20 05:45:41;;;;;;;;;;;;;;;;;;5090910;28;19923;-70
2022/02/20 05:48:06;;;;;;;;;;;;;;;;;;5084165;28;19981;-70
2022/02/20 05:50:32;;;;;;;;;;;;;;;;;;5092038;28;19916;-71
2022/02/20 05:52:57;;;;;;;;;;;;;;;;;;5080201;28;19940;-72
2022/02/20 05:55:23;;;;;;;;;;;;;;;;;;5091668;28;19916;-71
2022/02/20 05:57:49;;;;;;;;;;;;;;;;;;5078832;28;19922;-71
2022/02/20 06:00:17;;;;;;;;;;;;;;;;;;5081587;28;20248;-72
2022/02/20 06:02:43;;;;;;;;;;;;;;;;;;5091929;28;20284;-72
2022/02/20 06:05:08;;;;;;;;;;;;;;;;;;5078815;28;19920;-71
2022/02/20 06:07:34;;;;;;;;;;;;;;;;;;5075131;28;19916;-71
2022/02/20 06:10:00;;;;;;;;;;;;;;;;;;5092448;28;19944;-71
2022/02/20 06:12:25;;;;;;;;;;;;;;;;;;5079190;28;20019;-72
2022/02/20 06:14:51;;;;;;;;;;;;;;;;;;5091076;28;19959;-71
2022/02/20 06:17:16;;;;;;;;;;;;;;;;;;5092082;28;19967;-71
2022/02/20 06:19:42;;;;;;;;;;;;;;;;;;5078842;28;20257;-71
2022/02/20 06:22:07;;;;;;;;;;;;;;;;;;5089611;28;19920;-73
2022/02/20 06:24:32;;;;;;;;;;;;;;;;;;5091172;28;20268;-72
2022/02/20 06:26:58;;;;;;;;;;;;;;;;;;5083298;28;20232;-70
2022/02/20 06:29:24;;;;;;;;;;;;;;;;;;5086375;28;20398;-69
2022/02/20 06:31:50;;;;;;;;;;;;;;;;;;5080228;28;19955;-69
2022/02/20 06:34:15;;;;;;;;;;;;;;;;;;5066612;28;19924;-71
2022/02/20 06:36:41;;;;;;;;;;;;;;;;;;5097152;28;20016;-72
2022/02/20 06:39:06;;;;;;;;;;;;;;;;;;5079986;28;19924;-71
2022/02/20 06:41:32;;;;;;;;;;;;;;;;;;5082806;28;19926;-70
2022/02/20 06:43:57;;;;;;;;;;;;;;;;;;5091181;28;20336;-70
2022/02/20 06:46:22;;;;;;;;;;;;;;;;;;5082851;28;20296;-71
2022/02/20 06:48:48;;;;;;;;;;;;;;;;;;5082838;28;19969;-70
2022/02/20 06:51:13;;;;;;;;;;;;;;;;;;5082849;28;20388;-71
2022/02/20 06:53:38;;;;;;;;;;;;;;;;;;5090825;28;19916;-73
2022/02/20 06:56:04;;;;;;;;;;;;;;;;;;5090882;28;19976;-71
2022/02/20 06:58:29;;;;;;;;;;;;;;;;;;5090960;28;19916;-71
2022/02/20 07:00:55;;;;;;;;;;;;;;;;;;5082906;28;19916;-69
2022/02/20 07:03:20;;;;;;;;;;;;;;;;;;5091387;28;19920;-71
2022/02/20 07:05:46;;;;;;;;;;;;;;;;;;5082673;28;19916;-73
2022/02/20 07:08:12;;;;;;;;;;;;;;;;;;5090389;28;20125;-71
2022/02/20 07:10:37;;;;;;;;;;;;;;;;;;5089033;28;19955;-73
2022/02/20 07:13:02;;;;;;;;;;;;;;;;;;5081335;28;19916;-70
2022/02/20 07:15:28;;;;;;;;;;;;;;;;;;5090428;28;19943;-72
2022/02/20 07:17:53;;;;;;;;;;;;;;;;;;5082512;28;19923;-71
2022/02/20 07:20:19;;;;;;;;;;;;;;;;;;5090577;28;19927;-73
2022/02/20 07:22:45;;;;;;;;;;;;;;;;;;5090578;28;19920;-71
2022/02/20 07:25:11;;;;;;;;;;;;;;;;;;5099187;28;19916;-72
2022/02/20 07:27:40;;;;;;;;;;;;;;;;;;5081835;28;19966;-72
2022/02/20 07:30:06;;;;;;;;;;;;;;;;;;5099028;28;19920;-72
2022/02/20 07:32:31;;;;;;;;;;;;;;;;;;5088746;28;19961;-72
2022/02/20 07:34:57;;;;;;;;;;;;;;;;;;5090671;28;19926;-69
2022/02/20 07:37:22;;;;;;;;;;;;;;;;;;5090594;28;19916;-71
2022/02/20 07:39:47;;;;;;;;;;;;;;;;;;5089496;28;20064;-71
2022/02/20 07:42:13;;;;;;;;;;;;;;;;;;5082112;28;19920;-71
2022/02/20 07:44:39;;;;;;;;;;;;;;;;;;5081774;28;19927;-71
2022/02/20 07:47:04;;;;;;;;;;;;;;;;;;5090090;28;20318;-71
2022/02/20 07:49:29;;;;;;;;;;;;;;;;;;5088426;28;19990;-71
2022/02/20 07:51:55;;;;;;;;;;;;;;;;;;5090087;28;19957;-71
2022/02/20 07:54:20;;;;;;;;;;;;;;;;;;5092672;28;19917;-72
2022/02/20 07:56:46;;;;;;;;;;;;;;;;;;5081017;28;19966;-71
2022/02/20 07:59:11;;;;;;;;;;;;;;;;;;5075571;28;19961;-72
2022/02/20 08:01:36;;;;;;;;;;;;;;;;;;5080542;28;19939;-72
2022/02/20 08:04:02;;;;;;;;;;;;;;;;;;5074794;28;19973;-71
2022/02/20 08:06:27;;;;;;;;;;;;;;;;;;5089632;28;19923;-71
2022/02/20 08:08:52;;;;;;;;;;;;;;;;;;5069064;28;19917;-72
2022/02/20 08:11:18;;;;;;;;;;;;;;;;;;5087155;28;19916;-73
2022/02/20 08:13:44;;;;;;;;;;;;;;;;;;5088306;28;19930;-71
2022/02/20 08:16:09;;;;;;;;;;;;;;;;;;5076281;28;19943;-72
2022/02/20 08:18:35;;;;;;;;;;;;;;;;;;5079869;28;19916;-71
2022/02/20 08:21:01;;;;;;;;;;;;;;;;;;5089258;28;19920;-71
2022/02/20 08:23:27;;;;;;;;;;;;;;;;;;5088847;28;20005;-71
2022/02/20 08:25:52;;;;;;;;;;;;;;;;;;5081183;28;20519;-70
2022/02/20 08:28:17;;;;;;;;;;;;;;;;;;5089347;28;19916;-73
2022/02/20 08:30:43;;;;;;;;;;;;;;;;;;5089064;28;19927;-74
2022/02/20 08:33:08;;;;;;;;;;;;;;;;;;5081597;28;19955;-73
2022/02/20 08:35:34;;;;;;;;;;;;;;;;;;5077128;28;19974;-74
2022/02/20 08:38:01;;;;;;;;;;;;;;;;;;5085321;28;19943;-73
2022/02/20 08:40:27;;;;;;;;;;;;;;;;;;5080992;28;19968;-73
2022/02/20 08:42:52;;;;;;;;;;;;;;;;;;5077404;28;19924;-73
2022/02/20 08:45:18;;;;;;;;;;;;;;;;;;5081185;28;19916;-73
2022/02/20 08:47:43;;;;;;;;;;;;;;;;;;5088519;28;19923;-73
2022/02/20 08:50:10;;;;;;;;;;;;;;;;;;5080825;28;19938;-72
2022/02/20 08:52:36;;;;;;;;;;;;;;;;;;5080734;28;19924;-74
2022/02/20 08:55:03;;;;;;;;;;;;;;;;;;5089099;28;19916;-73
2022/02/20 08:57:28;;;;;;;;;;;;;;;;;;5080729;28;20438;-73
2022/02/20 08:59:55;;;;;;;;;;;;;;;;;;5088931;28;20003;-73
2022/02/20 09:02:20;;;;;;;;;;;;;;;;;;5080750;28;19924;-73
2022/02/20 09:04:46;;;;;;;;;;;;;;;;;;5080520;28;20337;-73
2022/02/20 09:07:11;;;;;;;;;;;;;;;;;;5080596;28;20051;-74
2022/02/20 09:09:38;;;;;;;;;;;;;;;;;;5080803;28;19920;-73
2022/02/20 09:12:04;;;;;;;;;;;;;;;;;;5080549;28;19916;-72
2022/02/20 09:14:29;;;;;;;;;;;;;;;;;;5088662;28;19923;-73
2022/02/20 09:16:56;;;;;;;;;;;;;;;;;;5089029;28;19939;-74
2022/02/20 09:19:21;;;;;;;;;;;;;;;;;;5089024;28;19923;-72
2022/02/20 09:21:46;;;;;;;;;;;;;;;;;;5097549;28;20418;-74
2022/02/20 09:24:12;;;;;;;;;;;;;;;;;;5080888;28;19959;-74
2022/02/20 09:26:37;;;;;;;;;;;;;;;;;;5088881;28;20345;-73
2022/02/20 09:29:03;;;;;;;;;;;;;;;;;;5080718;28;20011;-73
2022/02/20 09:31:28;;;;;;;;;;;;;;;;;;5073557;28;19916;-74
2022/02/20 09:33:55;;;;;;;;;;;;;;;;;;5088769;28;19928;-74
2022/02/20 09:36:20;;;;;;;;;;;;;;;;;;5082345;28;20072;-73
2022/02/20 09:38:45;;;;;;;;;;;;;;;;;;5100479;28;19931;-73
2022/02/20 09:41:11;;;;;;;;;;;;;;;;;;5091078;28;20134;-74
2022/02/20 09:43:38;;;;;;;;;;;;;;;;;;5092165;28;20342;-74
2022/02/20 09:46:04;;;;;;;;;;;;;;;;;;5083886;28;19916;-73
2022/02/20 09:48:30;;;;;;;;;;;;;;;;;;5084107;28;19916;-73
2022/02/20 09:50:56;;;;;;;;;;;;;;;;;;5083814;28;20240;-74
2022/02/20 09:53:22;;;;;;;;;;;;;;;;;;5092452;28;19916;-73
2022/02/20 09:55:49;;;;;;;;;;;;;;;;;;5091922;28;19923;-73
2022/02/20 09:58:15;;;;;;;;;;;;;;;;;;5083939;28;19923;-73
2022/02/20 10:00:51;;;;;;;;;;;;;;;;;;5090729;28;20076;-74
2022/02/20 10:03:46;;;;;;;;;;;;;;;;;;5079804;28;20444;-74
2022/02/20 10:06:17;;;;;;;;;;;;;;;;;;5082875;28;19916;-73
2022/02/20 10:08:43;;;;;;;;;;;;;;;;;;5077346;28;19920;-73
2022/02/20 10:11:20;;;;;;;;;;;;;;;;;;5082811;28;20399;-73
2022/02/20 10:13:46;;;;;;;;;;;;;;;;;;5084553;28;19943;-73
2022/02/20 10:16:15;;;;;;;;;;;;;;;;;;5064235;28;20414;-74
2022/02/20 10:18:43;;;;;;;;;;;;;;;;;;5089686;28;19932;-74
2022/02/20 10:21:10;;;;;;;;;;;;;;;;;;5083651;28;19966;-74
2022/02/20 10:23:38;;;;;;;;;;;;;;;;;;5090435;28;19935;-73
2022/02/20 10:26:13;;;;;;;;;;;;;;;;;;5091767;28;19988;-74
2022/02/20 10:28:57;;;;;;;;;;;;;;;;;;5089856;28;19986;-74
2022/02/20 10:31:42;;;;;;;;;;;;;;;;;;5091049;28;20315;-74
2022/02/20 10:34:08;;;;;;;;;;;;;;;;;;5083131;28;19956;-72
2022/02/20 10:36:47;;;;;;;;;;;;;;;;;;5091249;28;20376;-74
2022/02/20 10:39:19;;;;;;;;;;;;;;;;;;5082596;28;19920;-73
2022/02/20 10:41:45;;;;;;;;;;;;;;;;;;5079497;28;19924;-73
2022/02/20 10:44:11;;;;;;;;;;;;;;;;;;5079702;28;20390;-73
2022/02/20 10:46:36;;;;;;;;;;;;;;;;;;5083571;28;19920;-74
2022/02/20 10:49:01;;;;;;;;;;;;;;;;;;5089646;28;19992;-75
2022/02/20 10:51:36;;;;;;;;;;;;;;;;;;5091345;28;19924;-72
2022/02/20 10:54:02;;;;;;;;;;;;;;;;;;5090995;28;19978;-73
2022/02/20 10:56:38;;;;;;;;;;;;;;;;;;5091519;28;19915;-74
2022/02/20 10:59:04;;;;;;;;;;;;;;;;;;5091813;28;19916;-73
2022/02/20 11:01:30;;;;;;;;;;;;;;;;;;5090528;28;19959;-73
2022/02/20 11:04:02;;;;;;;;;;;;;;;;;;5092350;28;20121;-73
2022/02/20 11:06:31;;;;;;;;;;;;;;;;;;5076611;28;19952;-74
2022/02/20 11:08:56;;;;;;;;;;;;;;;;;;5081742;28;19995;-74
2022/02/20 11:11:42;;;;;;;;;;;;;;;;;;5076255;28;19917;-75
2022/02/20 11:14:15;;;;;;;;;;;;;;;;;;5075923;28;19917;-73
2022/02/20 11:16:44;;;;;;;;;;;;;;;;;;5082354;28;19916;-74
2022/02/20 11:19:12;;;;;;;;;;;;;;;;;;5091256;28;19927;-74
2022/02/20 11:21:40;;;;;;;;;;;;;;;;;;5082582;28;19918;-73
2022/02/20 11:24:06;;;;;;;;;;;;;;;;;;5078453;28;20491;-73
2022/02/20 11:26:33;;;;;;;;;;;;;;;;;;5075639;28;19916;-73
2022/02/20 11:28:58;;;;;;;;;;;;;;;;;;5087093;28;19923;-74
2022/02/20 11:31:24;;;;;;;;;;;;;;;;;;5076205;28;19920;-73
2022/02/20 11:33:53;;;;;;;;;;;;;;;;;;5082072;28;19916;-73
2022/02/20 11:36:19;;;;;;;;;;;;;;;;;;5072084;28;19912;-74
2022/02/20 11:39:05;;;;;;;;;;;;;;;;;;5086578;28;20211;-74
2022/02/20 11:41:31;;;;;;;;;;;;;;;;;;5082770;28;19916;-73
2022/02/20 11:44:09;;;;;;;;;;;;;;;;;;5091479;28;19975;-72
2022/02/20 11:46:48;;;;;;;;;;;;;;;;;;5085115;28;21326;-72
2022/02/20 11:49:27;;;;;;;;;;;;;;;;;;5090871;28;20038;-73
2022/02/20 11:51:57;;;;;;;;;;;;;;;;;;5077625;28;19920;-74
2022/02/20 11:54:22;;;;;;;;;;;;;;;;;;5088112;28;19916;-72
2022/02/20 11:57:06;;;;;;;;;;;;;;;;;;5089699;28;20251;-72
2022/02/20 11:59:32;;;;;;;;;;;;;;;;;;5089135;28;19916;-73
2022/02/20 12:02:12;;;;;;;;;;;;;;;;;;5089008;28;20398;-72
2022/02/20 12:04:57;;;;;;;;;;;;;;;;;;5084345;28;19984;-74
2022/02/20 12:07:29;;;;;;;;;;;;;;;;;;5061146;28;19916;-73
2022/02/20 12:10:13;;;;;;;;;;;;;;;;;;5089487;28;20143;-73
2022/02/20 12:12:38;;;;;;;;;;;;;;;;;;5083423;28;19927;-73
2022/02/20 12:15:22;;;;;;;;;;;;;;;;;;5089365;28;19932;-72
2022/02/20 12:17:59;;;;;;;;;;;;;;;;;;5074333;28;19935;-73
2022/02/20 12:20:43;;;;;;;;;;;;;;;;;;5087981;28;20344;-73
2022/02/20 12:23:09;;;;;;;;;;;;;;;;;;5081076;28;19992;-73
2022/02/20 12:25:38;;;;;;;;;;;;;;;;;;5089605;28;20022;-73
2022/02/20 12:28:07;;;;;;;;;;;;;;;;;;5075376;28;19917;-73
2022/02/20 12:30:32;;;;;;;;;;;;;;;;;;5081324;28;19920;-73
2022/02/20 12:33:01;;;;;;;;;;;;;;;;;;5080154;28;19992;-75
2022/02/20 12:35:27;;;;;;;;;;;;;;;;;;5080732;28;19920;-74
2022/02/20 12:37:53;;;;;;;;;;;;;;;;;;5081026;28;20372;-73
2022/02/20 12:40:24;;;;;;;;;;;;;;;;;;5074897;28;19932;-73
2022/02/20 12:42:57;;;;;;;;;;;;;;;;;;5082232;28;20448;-73
2022/02/20 12:45:23;;;;;;;;;;;;;;;;;;5089481;28;19927;-74
2022/02/20 12:47:49;;;;;;;;;;;;;;;;;;5080154;28;19920;-74
2022/02/20 12:50:15;;;;;;;;;;;;;;;;;;5074984;28;19964;-74
2022/02/20 12:52:41;;;;;;;;;;;;;;;;;;5081356;28;19927;-73
2022/02/20 12:55:09;;;;;;;;;;;;;;;;;;5089494;28;20223;-73
2022/02/20 12:57:37;;;;;;;;;;;;;;;;;;5081366;28;19917;-73
2022/02/20 13:00:13;;;;;;;;;;;;;;;;;;5088966;28;20372;-74
2022/02/20 13:02:41;;;;;;;;;;;;;;;;;;5088943;28;19969;-73
2022/02/20 13:05:08;;;;;;;;;;;;;;;;;;5089024;28;20387;-74
2022/02/20 13:07:37;;;;;;;;;;;;;;;;;;5074271;28;19920;-74
2022/02/20 13:10:03;;;;;;;;;;;;;;;;;;5080454;28;19939;-73
2022/02/20 13:12:28;;;;;;;;;;;;;;;;;;5092730;28;19924;-72
2022/02/20 13:14:58;;;;;;;;;;;;;;;;;;5091162;28;19924;-73
2022/02/20 13:17:40;;;;;;;;;;;;;;;;;;5088364;28;19927;-73
2022/02/20 13:20:24;;;;;;;;;;;;;;;;;;5079744;28;19923;-74
2022/02/20 13:22:49;;;;;;;;;;;;;;;;;;5086852;28;19924;-74
2022/02/20 13:25:16;;;;;;;;;;;;;;;;;;5092852;28;19933;-73
2022/02/20 13:27:45;;;;;;;;;;;;;;;;;;5084541;28;20007;-72
2022/02/20 13:30:11;;;;;;;;;;;;;;;;;;5101645;28;20013;-74
2022/02/20 13:32:36;;;;;;;;;;;;;;;;;;5092478;28;20027;-72
2022/02/20 13:35:04;;;;;;;;;;;;;;;;;;5092282;28;19920;-73
2022/02/20 13:37:30;;;;;;;;;;;;;;;;;;5092630;28;20006;-74
2022/02/20 13:39:57;;;;;;;;;;;;;;;;;;5092108;28;19974;-73
2022/02/20 13:42:23;;;;;;;;;;;;;;;;;;5090899;28;19916;-72
2022/02/20 13:44:48;;;;;;;;;;;;;;;;;;5092344;28;19916;-73
2022/02/20 13:47:15;;;;;;;;;;;;;;;;;;5083858;28;19916;-75
2022/02/20 13:49:49;;;;;;;;;;;;;;;;;;5092161;28;19916;-74
2022/02/20 13:52:31;;;;;;;;;;;;;;;;;;5092393;28;20366;-73
2022/02/20 13:54:56;;;;;;;;;;;;;;;;;;5092036;28;19963;-74
2022/02/20 13:57:25;;;;;;;;;;;;;;;;;;5083935;28;19978;-74
2022/02/20 13:59:51;;;;;;;;;;;;;;;;;;5086582;28;20284;-74
2022/02/20 14:02:16;;;;;;;;;;;;;;;;;;5089283;28;19924;-73
2022/02/20 14:04:47;;;;;;;;;;;;;;;;;;5086285;28;19916;-73
2022/02/20 14:07:16;;;;;;;;;;;;;;;;;;5090995;28;19970;-74
2022/02/20 14:09:44;;;;;;;;;;;;;;;;;;5083408;28;20272;-72
2022/02/20 14:12:17;;;;;;;;;;;;;;;;;;5084084;28;20344;-73
2022/02/20 14:14:59;;;;;;;;;;;;;;;;;;5085961;28;19916;-72
2022/02/20 14:17:44;;;;;;;;;;;;;;;;;;5077188;28;19920;-73
2022/02/20 14:20:10;;;;;;;;;;;;;;;;;;5079409;28;19916;-73
2022/02/20 14:22:39;;;;;;;;;;;;;;;;;;5088111;28;20022;-74
2022/02/20 14:25:09;;;;;;;;;;;;;;;;;;5085865;28;19920;-73
2022/02/20 14:27:37;;;;;;;;;;;;;;;;;;5090308;28;19924;-73
2022/02/20 14:30:03;;;;;;;;;;;;;;;;;;5078767;28;20013;-74
2022/02/20 14:32:31;;;;;;;;;;;;;;;;;;5089878;28;19923;-73
2022/02/20 14:34:56;;;;;;;;;;;;;;;;;;5091607;28;19915;-73
2022/02/20 14:37:32;;;;;;;;;;;;;;;;;;5091753;28;20347;-73
2022/02/20 14:39:57;;;;;;;;;;;;;;;;;;5077417;28;19920;-73
2022/02/20 14:42:22;;;;;;;;;;;;;;;;;;5082450;28;19939;-72
2022/02/20 14:44:49;;;;;;;;;;;;;;;;;;5077263;28;19931;-74
2022/02/20 14:47:16;;;;;;;;;;;;;;;;;;5090414;28;19928;-74
2022/02/20 14:49:42;;;;;;;;;;;;;;;;;;5081863;28;19920;-75
2022/02/20 14:52:07;;;;;;;;;;;;;;;;;;5077627;28;20273;-75
2022/02/20 14:54:32;;;;;;;;;;;;;;;;;;5082148;28;19922;-74
2022/02/20 14:57:00;;;;;;;;;;;;;;;;;;5090903;28;20322;-73
2022/02/20 14:59:29;;;;;;;;;;;;;;;;;;5084280;28;19922;-73
2022/02/20 15:01:54;;;;;;;;;;;;;;;;;;5081832;28;19916;-74
2022/02/20 15:04:20;;;;;;;;;;;;;;;;;;5076878;28;19920;-73
2022/02/20 15:06:45;;;;;;;;;;;;;;;;;;5091801;28;20003;-74
2022/02/20 15:09:11;;;;;;;;;;;;;;;;;;5089623;28;19969;-74
2022/02/20 15:11:41;;;;;;;;;;;;;;;;;;5090629;28;19942;-74
2022/02/20 15:14:08;;;;;;;;;;;;;;;;;;5076478;28;20071;-73
2022/02/20 15:16:33;;;;;;;;;;;;;;;;;;5082056;28;19985;-74
2022/02/20 15:18:58;;;;;;;;;;;;;;;;;;5090328;28;20326;-73
2022/02/20 15:21:24;;;;;;;;;;;;;;;;;;5090630;28;19920;-74
2022/02/20 15:23:49;;;;;;;;;;;;;;;;;;5091568;28;19928;-73
2022/02/20 15:26:15;;;;;;;;;;;;;;;;;;5092105;28;19927;-73
2022/02/20 15:28:40;;;;;;;;;;;;;;;;;;5089476;28;19962;-73
2022/02/20 15:31:06;;;;;;;;;;;;;;;;;;5090053;28;20832;-72
2022/02/20 15:33:31;;;;;;;;;;;;;;;;;;5076460;28;19917;-72
2022/02/20 15:35:57;;;;;;;;;;;;;;;;;;5079392;28;19970;-73
2022/02/20 15:38:22;;;;;;;;;;;;;;;;;;5082067;28;19916;-74
2022/02/20 15:40:47;;;;;;;;;;;;;;;;;;5077040;28;19960;-74
2022/02/20 15:43:13;;;;;;;;;;;;;;;;;;5087696;28;20019;-74
2022/02/20 15:45:40;;;;;;;;;;;;;;;;;;5077743;28;19916;-73
2022/02/20 15:48:05;;;;;;;;;;;;;;;;;;5075245;28;19920;-74
2022/02/20 15:50:30;;;;;;;;;;;;;;;;;;5089090;28;19996;-73
2022/02/20 15:52:56;;;;;;;;;;;;;;;;;;5088456;28;19919;-73
2022/02/20 15:55:21;;;;;;;;;;;;;;;;;;5090234;28;20339;-75
2022/02/20 15:57:48;;;;;;;;;;;;;;;;;;5090402;28;19990;-74
2022/02/20 16:00:13;;;;;;;;;;;;;;;;;;5089349;28;19915;-74
2022/02/20 16:02:39;;;;;;;;;;;;;;;;;;5074763;28;19931;-73
2022/02/20 16:05:07;;;;;;;;;;;;;;;;;;5081176;28;19938;-74
2022/02/20 16:07:32;;;;;;;;;;;;;;;;;;5089762;28;20387;-73
2022/02/20 16:09:58;;;;;;;;;;;;;;;;;;5081684;28;19920;-72
2022/02/20 16:12:24;;;;;;;;;;;;;;;;;;5089685;28;19931;-74
2022/02/20 16:14:49;;;;;;;;;;;;;;;;;;5081403;28;20458;-73
2022/02/20 16:17:15;;;;;;;;;;;;;;;;;;5081567;28;20006;-75
2022/02/20 16:19:41;;;;;;;;;;;;;;;;;;5082762;28;20513;-78
2022/02/20 16:22:07;;;;;;;;;;;;;;;;;;5089364;28;19920;-73
2022/02/20 16:24:32;;;;;;;;;;;;;;;;;;5088311;28;20397;-73
2022/02/20 16:26:57;;;;;;;;;;;;;;;;;;5089438;28;19927;-73
2022/02/20 16:29:23;;;;;;;;;;;;;;;;;;5081313;28;20421;-73
2022/02/20 16:31:49;;;;;;;;;;;;;;;;;;5089602;28;19919;-74
2022/02/20 16:34:15;;;;;;;;;;;;;;;;;;5078614;28;19920;-75
2022/02/20 16:36:41;;;;;;;;;;;;;;;;;;5081510;28;19934;-74
2022/02/20 16:39:07;;;;;;;;;;;;;;;;;;5081028;28;19924;-73
2022/02/20 16:41:32;;;;;;;;;;;;;;;;;;5081223;28;19927;-74
2022/02/20 16:43:58;;;;;;;;;;;;;;;;;;5089231;28;19963;-73